createdAt,value
2017-07-07T00:18:01.222Z,21.68398
2017-07-07T00:38:06.303Z,21.621502
2017-07-07T00:58:11.222Z,21.621502
2017-07-07T01:18:16.411Z,21.621502
2017-07-07T01:38:21.462Z,21.559023999999997
2017-07-07T01:58:26.552Z,21.559023999999997
2017-07-07T02:18:31.508Z,21.559023999999997
2017-07-07T02:38:36.331Z,21.559023999999997
2017-07-07T02:58:41.505Z,21.559023999999997
2017-07-07T03:18:46.547Z,21.559023999999997
2017-07-07T03:38:51.676Z,21.559023999999997
2017-07-07T03:58:56.667Z,21.559023999999997
2017-07-07T04:19:01.728Z,21.496546
2017-07-07T04:39:06.743Z,21.496546
2017-07-07T04:59:11.726Z,21.496546
2017-07-07T05:19:17.188Z,21.496546
2017-07-07T05:39:22.071Z,21.496546
2017-07-07T06:19:31.911Z,21.559023999999997
2017-07-07T06:39:37.148Z,21.621502
2017-07-07T06:59:41.879Z,21.621502
2017-07-07T07:19:47.056Z,21.68398
2017-07-07T07:39:52.060Z,21.621502
2017-07-07T07:59:57.303Z,21.68398
2017-07-07T08:20:02.236Z,21.68398
2017-07-07T08:40:07.381Z,21.68398
2017-07-07T09:00:12.334Z,21.808936
2017-07-07T09:20:17.467Z,21.746457999999997
2017-07-07T09:40:22.288Z,21.808936
2017-07-07T10:00:27.558Z,21.933892
2017-07-07T10:20:32.591Z,21.871413999999998
2017-07-07T10:40:37.482Z,21.99637
2017-07-07T11:00:42.611Z,21.933892
2017-07-07T11:20:47.533Z,21.99637
2017-07-07T11:40:52.728Z,21.99637
2017-07-07T12:00:57.688Z,22.058847999999998
2017-07-07T12:21:02.786Z,22.183804
2017-07-07T12:41:07.785Z,22.30876
2017-07-07T13:01:11.905Z,22.246281999999997
2017-07-07T13:21:16.842Z,22.183804
2017-07-07T13:41:21.954Z,22.246281999999997
2017-07-07T14:01:26.946Z,22.30876
2017-07-07T14:21:32.387Z,22.246281999999997
2017-07-07T14:41:37.223Z,22.30876
2017-07-07T15:01:42.181Z,22.30876
2017-07-07T15:21:47.047Z,22.30876
2017-07-07T15:41:52.327Z,22.30876
2017-07-07T16:01:57.131Z,22.30876
2017-07-07T16:22:02.434Z,22.30876
2017-07-07T16:42:07.297Z,22.30876
2017-07-07T17:02:12.268Z,22.371237999999998
2017-07-07T17:22:17.324Z,22.30876
2017-07-07T17:42:22.605Z,22.30876
2017-07-07T18:02:27.489Z,22.30876
2017-07-07T18:22:32.637Z,22.30876
2017-07-07T18:42:37.603Z,22.30876
2017-07-07T19:02:42.544Z,22.30876
2017-07-07T19:22:47.665Z,22.30876
2017-07-07T19:42:52.785Z,22.30876
2017-07-07T20:02:57.735Z,22.30876
2017-07-07T20:23:02.817Z,22.30876
2017-07-07T20:43:08.036Z,22.30876
2017-07-07T21:23:18.016Z,22.30876
2017-07-07T21:43:23.005Z,22.246281999999997
2017-07-07T22:23:33.081Z,22.246281999999997
2017-07-07T22:43:38.095Z,22.246281999999997
2017-07-07T23:03:43.072Z,22.183804
2017-07-07T23:23:48.306Z,22.183804
2017-07-07T23:43:53.220Z,22.183804
